createdAt,value
2017-02-11T00:00:15.454Z,0.90
2017-02-11T00:00:37.163Z,0.90
2017-02-11T00:01:03.640Z,0.88
2017-02-11T00:01:25.362Z,0.87
2017-02-11T00:01:47.080Z,0.88
2017-02-11T00:02:13.559Z,0.88
2017-02-11T00:02:35.251Z,0.87
2017-02-11T00:02:56.974Z,0.88
2017-02-11T00:03:23.446Z,0.89
2017-02-11T00:03:45.181Z,0.91
2017-02-11T00:04:06.886Z,0.93
2017-02-11T00:04:28.595Z,0.95
2017-02-11T00:04:50.299Z,0.97
2017-02-11T00:05:16.768Z,0.96
2017-02-11T00:05:38.465Z,0.97
2017-02-11T00:06:09.719Z,0.94
2017-02-11T00:06:31.437Z,0.93
2017-02-11T00:06:53.147Z,0.93
2017-02-11T00:07:14.891Z,0.94
2017-02-11T00:07:41.476Z,0.93
2017-02-11T00:08:07.948Z,0.92
2017-02-11T00:08:29.640Z,0.90
2017-02-11T00:08:51.351Z,0.90
2017-02-11T00:09:13.052Z,0.91
2017-02-11T00:09:34.832Z,0.93
2017-02-11T00:10:01.321Z,0.94
2017-02-11T00:10:23.029Z,0.97
2017-02-11T00:10:44.737Z,0.98
2017-02-11T00:11:11.203Z,0.99
2017-02-11T00:11:32.991Z,1.00
2017-02-11T00:12:04.248Z,1.01
2017-02-11T00:12:25.980Z,1.02
2017-02-11T00:12:57.230Z,1.03
2017-02-11T00:13:18.929Z,1.04
2017-02-11T00:13:40.640Z,1.04
2017-02-11T00:14:02.362Z,1.07
2017-02-11T00:14:24.063Z,1.08
2017-02-11T00:14:45.770Z,1.08
2017-02-11T00:15:12.618Z,1.08
2017-02-11T00:15:34.332Z,1.08
2017-02-11T00:16:00.814Z,1.07
2017-02-11T00:16:22.528Z,1.08
2017-02-11T00:16:44.234Z,1.09
2017-02-11T00:17:10.704Z,1.11
2017-02-11T00:17:32.517Z,1.11
2017-02-11T00:17:54.237Z,1.11
2017-02-11T00:18:25.482Z,1.10
2017-02-11T00:18:48.186Z,1.09
2017-02-11T00:19:09.906Z,1.10
2017-02-11T00:19:36.410Z,1.10
2017-02-11T00:19:58.112Z,1.12
2017-02-11T00:20:19.817Z,1.12
2017-02-11T00:20:46.293Z,1.12
2017-02-11T00:21:07.992Z,1.13
2017-02-11T00:21:29.683Z,1.14
2017-02-11T00:21:56.162Z,1.17
2017-02-11T00:22:17.873Z,1.16
2017-02-11T00:22:39.581Z,1.16
2017-02-11T00:23:01.281Z,1.16
2017-02-11T00:23:22.984Z,1.14
2017-02-11T00:23:44.709Z,1.13
2017-02-11T00:24:11.191Z,1.12
2017-02-11T00:25:08.925Z,1.11
2017-02-11T00:25:30.652Z,1.09
2017-02-11T00:25:52.368Z,1.11
2017-02-11T00:26:14.071Z,1.11
2017-02-11T00:26:36.783Z,1.12
2017-02-11T00:26:58.532Z,1.11
2017-02-11T00:27:25.033Z,1.10
2017-02-11T00:27:46.775Z,1.11
2017-02-11T00:28:58.827Z,1.07
2017-02-11T00:29:20.538Z,1.07
2017-02-11T00:29:42.249Z,1.08
2017-02-11T00:30:03.954Z,1.09
2017-02-11T00:30:25.647Z,1.09
2017-02-11T00:31:18.596Z,1.08
2017-02-11T00:31:40.304Z,1.06
2017-02-11T00:32:47.623Z,1.08
2017-02-11T00:33:09.327Z,1.08
2017-02-11T00:33:31.023Z,1.07
2017-02-11T00:33:57.514Z,1.06
2017-02-11T00:34:19.227Z,1.06
2017-02-11T00:34:50.476Z,1.05
2017-02-11T00:35:12.185Z,1.06
2017-02-11T00:35:33.909Z,1.05
2017-02-11T00:35:55.631Z,1.07
2017-02-11T00:36:17.338Z,1.06
2017-02-11T00:36:39.042Z,1.05
2017-02-11T00:37:05.518Z,1.07
2017-02-11T00:37:27.214Z,1.08
2017-02-11T00:37:48.935Z,1.08
2017-02-11T00:38:10.655Z,1.08
2017-02-11T00:38:32.359Z,1.08
2017-02-11T00:38:54.089Z,1.06
2017-02-11T00:39:20.594Z,1.07
2017-02-11T00:39:42.291Z,1.06
2017-02-11T00:40:13.548Z,1.04
2017-02-11T00:40:35.251Z,1.09
2017-02-11T00:40:56.952Z,1.10
2017-02-11T00:41:23.449Z,1.12
2017-02-11T00:41:45.147Z,1.09
2017-02-11T00:42:06.856Z,1.14
2017-02-11T00:42:28.555Z,1.13
2017-02-11T00:42:50.273Z,1.13
2017-02-11T00:43:21.544Z,1.09
2017-02-11T00:43:43.244Z,1.10
2017-02-11T00:44:09.733Z,1.10
2017-02-11T00:44:31.448Z,1.11
2017-02-11T00:44:57.937Z,1.11
2017-02-11T00:45:19.668Z,1.11
2017-02-11T00:45:50.928Z,1.11
2017-02-11T00:46:12.666Z,1.11
2017-02-11T00:46:43.907Z,1.14
2017-02-11T00:47:05.617Z,1.13
2017-02-11T00:47:36.882Z,1.11
2017-02-11T00:47:58.603Z,1.13
2017-02-11T00:48:29.854Z,1.17
2017-02-11T00:48:51.549Z,1.15
2017-02-11T00:49:58.858Z,1.09
2017-02-11T00:50:20.605Z,1.09
2017-02-11T00:50:47.087Z,1.08
2017-02-11T00:51:08.796Z,1.08
2017-02-11T00:51:30.506Z,1.09
2017-02-11T00:51:56.990Z,1.11
2017-02-11T00:52:18.693Z,1.12
2017-02-11T00:52:49.950Z,1.12
2017-02-11T00:53:11.658Z,1.11
2017-02-11T00:53:33.367Z,1.10
2017-02-11T00:53:59.851Z,1.10
2017-02-11T00:54:21.555Z,1.11
2017-02-11T00:54:43.259Z,1.11
2017-02-11T00:55:04.965Z,1.11
2017-02-11T00:55:26.685Z,1.11
2017-02-11T00:55:48.389Z,1.13
2017-02-11T00:56:19.637Z,1.15
2017-02-11T00:56:41.351Z,1.15
2017-02-11T00:57:12.613Z,1.16
2017-02-11T00:57:34.330Z,1.19
2017-02-11T00:58:05.588Z,1.18
2017-02-11T00:58:27.281Z,1.20
2017-02-11T00:58:48.988Z,1.16
2017-02-11T00:59:20.239Z,1.07
2017-02-11T00:59:41.940Z,1.05
2017-02-11T01:00:13.204Z,1.12
2017-02-11T01:00:34.949Z,1.13
2017-02-11T01:01:06.203Z,1.15
2017-02-11T01:01:27.901Z,1.17
2017-02-11T01:01:54.389Z,1.14
2017-02-11T01:02:16.119Z,1.06
2017-02-11T01:02:47.367Z,1.00
2017-02-11T01:03:09.069Z,1.01
2017-02-11T01:03:30.801Z,0.97
2017-02-11T01:03:52.508Z,0.95
2017-02-11T01:04:14.205Z,0.99
2017-02-11T01:04:35.909Z,1.02
2017-02-11T01:05:02.403Z,0.97
2017-02-11T01:05:24.116Z,0.96
2017-02-11T01:05:45.819Z,0.95
2017-02-11T01:06:17.081Z,0.88
2017-02-11T01:06:38.787Z,0.85
2017-02-11T01:07:00.497Z,0.83
2017-02-11T01:07:26.968Z,0.86
2017-02-11T01:07:48.672Z,0.90
2017-02-11T01:08:10.378Z,0.91
2017-02-11T01:08:32.086Z,0.90
2017-02-11T01:08:53.790Z,0.91
2017-02-11T01:09:15.493Z,0.94
2017-02-11T01:09:37.207Z,0.95
2017-02-11T01:09:58.913Z,0.98
2017-02-11T01:10:30.176Z,1.01
2017-02-11T01:10:51.911Z,1.03
2017-02-11T01:11:13.638Z,1.04
2017-02-11T01:11:35.352Z,1.07
2017-02-11T01:11:57.055Z,1.06
2017-02-11T01:12:18.762Z,1.09
2017-02-11T01:12:40.471Z,1.11
2017-02-11T01:13:02.199Z,1.11
2017-02-11T01:13:33.452Z,1.13
2017-02-11T01:13:55.141Z,1.16
2017-02-11T01:14:16.861Z,1.15
2017-02-11T01:14:48.121Z,1.11
2017-02-11T01:15:12.550Z,1.07
2017-02-11T01:15:39.029Z,1.07
2017-02-11T01:16:00.732Z,1.08
2017-02-11T01:16:31.993Z,1.11
2017-02-11T01:16:53.692Z,1.11
2017-02-11T01:17:15.405Z,1.11
2017-02-11T01:17:41.889Z,1.17
2017-02-11T01:18:03.593Z,1.17
2017-02-11T01:18:25.302Z,1.14
2017-02-11T01:18:51.781Z,1.15
2017-02-11T01:19:13.473Z,1.15
2017-02-11T01:19:35.184Z,1.15
2017-02-11T01:20:01.672Z,1.10
2017-02-11T01:20:23.378Z,1.08
2017-02-11T01:20:45.111Z,1.08
2017-02-11T01:21:06.819Z,1.08
2017-02-11T01:21:28.548Z,1.11
2017-02-11T01:21:59.809Z,1.14
2017-02-11T01:22:21.509Z,1.18
2017-02-11T01:23:09.706Z,1.19
2017-02-11T01:23:31.483Z,1.19
2017-02-11T01:24:02.742Z,1.18
2017-02-11T01:24:24.452Z,1.16
2017-02-11T01:25:00.471Z,1.15
2017-02-11T01:25:27.537Z,1.15
2017-02-11T01:25:49.357Z,1.16
2017-02-11T01:26:11.056Z,1.17
2017-02-11T01:26:32.790Z,1.13
2017-02-11T01:26:54.499Z,1.13
2017-02-11T01:27:16.200Z,1.15
2017-02-11T01:27:42.668Z,1.18
2017-02-11T01:28:04.373Z,1.18
2017-02-11T01:28:26.088Z,1.17
2017-02-11T01:28:52.575Z,1.16
2017-02-11T01:29:14.296Z,1.14
2017-02-11T01:29:36.033Z,1.15
2017-02-11T01:30:02.517Z,1.16
2017-02-11T01:30:24.212Z,1.13
2017-02-11T01:30:45.909Z,1.12
2017-02-11T01:31:12.490Z,1.11
2017-02-11T01:31:34.331Z,1.13
2017-02-11T01:32:00.897Z,1.13
2017-02-11T01:32:22.689Z,1.13
2017-02-11T01:33:25.212Z,1.15
2017-02-11T01:33:47.000Z,1.16
2017-02-11T01:34:18.259Z,1.16
2017-02-11T01:34:39.970Z,1.21
2017-02-11T01:35:15.995Z,1.24
2017-02-11T01:35:43.283Z,1.23
2017-02-11T01:36:05.107Z,1.19
2017-02-11T01:36:31.674Z,1.18
2017-02-11T01:36:53.371Z,1.19
2017-02-11T01:37:19.950Z,1.18
2017-02-11T01:37:41.751Z,1.15
2017-02-11T01:38:03.544Z,1.17
2017-02-11T01:38:25.248Z,1.17
2017-02-11T01:38:47.065Z,1.17
2017-02-11T01:39:08.867Z,1.16
2017-02-11T01:39:44.896Z,1.21
2017-02-11T01:40:12.053Z,1.25
2017-02-11T01:40:33.840Z,1.22
2017-02-11T01:40:55.552Z,1.23
2017-02-11T01:41:22.039Z,1.27
2017-02-11T01:41:43.848Z,1.27
2017-02-11T01:42:15.114Z,1.26
2017-02-11T01:42:36.811Z,1.29
2017-02-11T01:43:08.081Z,1.27
2017-02-11T01:43:29.880Z,1.29
2017-02-11T01:43:51.678Z,1.27
2017-02-11T01:44:13.392Z,1.25
2017-02-11T01:44:35.186Z,1.27
2017-02-11T01:45:01.661Z,1.27
2017-02-11T01:45:23.371Z,1.24
2017-02-11T01:45:49.953Z,1.22
2017-02-11T01:46:11.648Z,1.19
2017-02-11T01:46:33.340Z,1.18
2017-02-11T01:47:04.595Z,1.18
2017-02-11T01:47:26.309Z,1.21
2017-02-11T01:47:52.788Z,1.22
2017-02-11T01:48:14.474Z,1.20
2017-02-11T01:48:36.266Z,1.17
2017-02-11T01:48:57.979Z,1.12
2017-02-11T01:49:19.680Z,1.12
2017-02-11T01:49:41.393Z,1.11
2017-02-11T01:50:07.949Z,1.12
2017-02-11T01:50:29.661Z,1.13
2017-02-11T01:50:51.354Z,1.13
2017-02-11T01:51:22.697Z,1.13
2017-02-11T01:51:44.414Z,1.13
2017-02-11T01:52:11.004Z,1.14
2017-02-11T01:52:32.814Z,1.16
2017-02-11T01:52:59.372Z,1.18
2017-02-11T01:53:21.072Z,1.16
2017-02-11T01:53:47.643Z,1.16
2017-02-11T01:54:09.339Z,1.18
2017-02-11T01:54:35.809Z,1.23
2017-02-11T01:54:57.499Z,1.24
2017-02-11T01:55:24.085Z,1.24
2017-02-11T01:55:50.547Z,1.22
2017-02-11T01:56:12.263Z,1.22
2017-02-11T01:56:33.969Z,1.23
2017-02-11T01:57:00.545Z,1.23
2017-02-11T01:57:22.274Z,1.23
2017-02-11T01:57:43.991Z,1.22
2017-02-11T01:58:10.464Z,1.20
2017-02-11T01:58:32.158Z,1.23
2017-02-11T01:58:53.862Z,1.23
2017-02-11T01:59:20.364Z,1.25
2017-02-11T01:59:42.063Z,1.25
2017-02-11T02:00:08.631Z,1.23
2017-02-11T02:00:30.330Z,1.24
2017-02-11T02:00:56.804Z,1.24
2017-02-11T02:01:18.509Z,1.20
2017-02-11T02:01:40.285Z,1.21
2017-02-11T02:02:16.315Z,1.21
2017-02-11T02:02:43.560Z,1.26
2017-02-11T02:03:05.347Z,1.25
2017-02-11T02:03:36.603Z,1.26
2017-02-11T02:03:58.431Z,1.23
2017-02-11T02:05:01.035Z,1.24
2017-02-11T02:05:22.820Z,1.24
2017-02-11T02:05:44.526Z,1.24
2017-02-11T02:06:06.229Z,1.22
2017-02-11T02:06:27.922Z,1.22
2017-02-11T02:06:49.707Z,1.21
2017-02-11T02:07:20.958Z,1.23
2017-02-11T02:07:42.649Z,1.24
2017-02-11T02:08:13.987Z,1.27
2017-02-11T02:08:35.799Z,1.31
2017-02-11T02:08:57.591Z,1.31
2017-02-11T02:09:19.310Z,1.33
2017-02-11T02:09:41.106Z,1.32
2017-02-11T02:10:07.586Z,1.34
2017-02-11T02:10:29.364Z,1.35
2017-02-11T02:11:31.975Z,1.33
2017-02-11T02:11:58.541Z,1.31
2017-02-11T02:12:20.327Z,1.32
2017-02-11T02:12:46.890Z,1.32
2017-02-11T02:13:08.696Z,1.34
2017-02-11T02:13:30.494Z,1.35
2017-02-11T02:13:52.240Z,1.35
2017-02-11T02:14:14.023Z,1.36
2017-02-11T02:14:35.814Z,1.38
2017-02-11T02:15:02.383Z,1.38
2017-02-11T02:15:24.099Z,1.36
2017-02-11T02:15:45.871Z,1.35
2017-02-11T02:16:07.681Z,1.37
2017-02-11T02:16:29.479Z,1.36
2017-02-11T02:16:51.268Z,1.32
2017-02-11T02:17:12.981Z,1.29
2017-02-11T02:17:34.775Z,1.29
2017-02-11T02:17:56.567Z,1.29
2017-02-11T02:18:23.144Z,1.26
2017-02-11T02:18:44.933Z,1.25
2017-02-11T02:19:06.735Z,1.26
2017-02-11T02:19:42.769Z,1.28
2017-02-11T02:20:10.103Z,1.27
2017-02-11T02:20:31.889Z,1.27
2017-02-11T02:20:53.685Z,1.29
2017-02-11T02:21:15.413Z,1.28
2017-02-11T02:21:37.114Z,1.26
2017-02-11T02:21:58.907Z,1.27
2017-02-11T02:22:20.612Z,1.27
2017-02-11T02:22:42.353Z,1.27
2017-02-11T02:23:04.136Z,1.27
2017-02-11T02:23:25.933Z,1.24
2017-02-11T02:23:47.727Z,1.25
2017-02-11T02:24:18.977Z,1.25
2017-02-11T02:24:40.687Z,1.28
2017-02-11T02:25:48.076Z,1.33
2017-02-11T02:26:09.861Z,1.34
2017-02-11T02:26:41.118Z,1.32
2017-02-11T02:27:02.918Z,1.32
2017-02-11T02:27:29.499Z,1.32
2017-02-11T02:27:51.313Z,1.34
2017-02-11T02:28:13.124Z,1.36
2017-02-11T02:28:39.703Z,1.36
2017-02-11T02:29:01.425Z,1.37
2017-02-11T02:29:23.233Z,1.38
2017-02-11T02:29:49.800Z,1.36
2017-02-11T02:30:11.589Z,1.36
2017-02-11T02:30:42.923Z,1.35
2017-02-11T02:31:04.702Z,1.36
2017-02-11T02:31:26.518Z,1.35
2017-02-11T02:31:53.095Z,1.35
2017-02-11T02:32:14.900Z,1.36
2017-02-11T02:32:46.240Z,1.38
2017-02-11T02:33:08.025Z,1.40
2017-02-11T02:33:29.814Z,1.38
2017-02-11T02:33:51.520Z,1.38
2017-02-11T02:34:13.321Z,1.38
2017-02-11T02:34:35.065Z,1.37
2017-02-11T02:35:01.538Z,1.36
2017-02-11T02:35:23.320Z,1.38
2017-02-11T02:35:59.346Z,1.38
2017-02-11T02:36:21.822Z,1.38
2017-02-11T02:36:43.617Z,1.40
2017-02-11T02:37:05.517Z,1.38
2017-02-11T02:37:36.779Z,1.38
2017-02-11T02:37:58.598Z,1.38
2017-02-11T02:38:20.382Z,1.37
2017-02-11T02:38:42.180Z,1.36
2017-02-11T02:39:03.953Z,1.37
2017-02-11T02:39:25.743Z,1.39
2017-02-11T02:39:57.006Z,1.39
2017-02-11T02:40:18.800Z,1.38
2017-02-11T02:41:21.390Z,1.40
2017-02-11T02:41:47.979Z,1.39
2017-02-11T02:42:09.680Z,1.43
2017-02-11T02:42:40.937Z,1.41
2017-02-11T02:43:02.645Z,1.43
2017-02-11T02:43:33.905Z,1.40
2017-02-11T02:43:55.615Z,1.39
2017-02-11T02:44:17.333Z,1.39
2017-02-11T02:44:43.816Z,1.37
2017-02-11T02:45:05.536Z,1.37
2017-02-11T02:45:32.015Z,1.37
2017-02-11T02:45:53.746Z,1.36
2017-02-11T02:46:25.006Z,1.37
2017-02-11T02:46:46.702Z,1.38
2017-02-11T02:47:22.732Z,1.38
2017-02-11T02:47:49.737Z,1.40
2017-02-11T02:48:11.437Z,1.41
2017-02-11T02:48:42.699Z,1.41
2017-02-11T02:49:04.401Z,1.38
2017-02-11T02:49:26.098Z,1.38
2017-02-11T02:50:02.130Z,1.39
2017-02-11T02:50:29.117Z,1.40
2017-02-11T02:50:50.828Z,1.43
2017-02-11T02:51:17.338Z,1.44
2017-02-11T02:51:39.020Z,1.44
2017-02-11T02:52:00.743Z,1.41
2017-02-11T02:52:22.448Z,1.43
2017-02-11T02:52:44.155Z,1.41
2017-02-11T02:53:05.858Z,1.40
2017-02-11T02:53:27.560Z,1.38
2017-02-11T02:53:49.260Z,1.41
2017-02-11T02:54:10.961Z,1.42
2017-02-11T02:54:37.433Z,1.43
2017-02-11T02:54:59.126Z,1.40
2017-02-11T02:55:30.380Z,1.40
2017-02-11T02:55:52.089Z,1.39
2017-02-11T02:56:13.823Z,1.40
2017-02-11T02:56:49.852Z,1.41
2017-02-11T02:57:16.889Z,1.43
2017-02-11T02:57:38.593Z,1.44
2017-02-11T02:58:00.289Z,1.44
2017-02-11T02:58:26.759Z,1.41
2017-02-11T02:58:48.451Z,1.39
2017-02-11T02:59:10.154Z,1.35
2017-02-11T02:59:36.637Z,1.36
2017-02-11T02:59:58.351Z,1.35
2017-02-11T03:01:00.892Z,1.38
2017-02-11T03:01:27.362Z,1.37
2017-02-11T03:01:49.062Z,1.39
2017-02-11T03:02:10.790Z,1.37
2017-02-11T03:02:37.270Z,1.36
2017-02-11T03:02:58.975Z,1.38
2017-02-11T03:03:30.233Z,1.42
2017-02-11T03:03:51.928Z,1.40
2017-02-11T03:04:23.199Z,1.41
2017-02-11T03:04:44.896Z,1.43
2017-02-11T03:05:16.150Z,1.39
2017-02-11T03:05:37.897Z,1.41
2017-02-11T03:06:09.147Z,1.43
2017-02-11T03:06:30.847Z,1.44
2017-02-11T03:06:52.561Z,1.44
2017-02-11T03:07:55.119Z,1.45
2017-02-11T03:08:16.822Z,1.44
2017-02-11T03:08:43.290Z,1.41
2017-02-11T03:09:04.992Z,1.41
2017-02-11T03:09:31.467Z,1.41
2017-02-11T03:09:53.174Z,1.40
2017-02-11T03:10:14.892Z,1.40
2017-02-11T03:10:36.595Z,1.40
2017-02-11T03:10:58.305Z,1.40
2017-02-11T03:11:20.013Z,1.41
2017-02-11T03:11:41.721Z,1.38
2017-02-11T03:12:03.447Z,1.36
2017-02-11T03:12:25.161Z,1.32
2017-02-11T03:13:37.215Z,1.37
2017-02-11T03:13:58.923Z,1.38
2017-02-11T03:14:20.626Z,1.39
2017-02-11T03:14:47.126Z,1.39
2017-02-11T03:15:08.821Z,1.41
2017-02-11T03:15:35.297Z,1.40
2017-02-11T03:15:57.005Z,1.39
2017-02-11T03:16:18.707Z,1.40
2017-02-11T03:16:46.183Z,1.39
2017-02-11T03:17:07.878Z,1.38
2017-02-11T03:17:29.596Z,1.37
2017-02-11T03:17:51.299Z,1.35
2017-02-11T03:18:13.063Z,1.36
2017-02-11T03:18:39.544Z,1.35
2017-02-11T03:19:01.245Z,1.35
2017-02-11T03:19:22.945Z,1.37
2017-02-11T03:20:30.237Z,1.40
2017-02-11T03:20:51.974Z,1.41
2017-02-11T03:21:59.255Z,1.44
2017-02-11T03:22:20.953Z,1.45
2017-02-11T03:22:52.209Z,1.46
2017-02-11T03:23:13.934Z,1.48
2017-02-11T03:24:25.995Z,1.47
2017-02-11T03:24:47.733Z,1.48
2017-02-11T03:25:23.767Z,1.48
2017-02-11T03:25:50.844Z,1.47
2017-02-11T03:26:12.551Z,1.47
2017-02-11T03:26:34.251Z,1.49
2017-02-11T03:26:55.960Z,1.47
2017-02-11T03:27:17.676Z,1.46
2017-02-11T03:27:44.154Z,1.48
2017-02-11T03:28:05.852Z,1.46
2017-02-11T03:28:37.105Z,1.43
2017-02-11T03:28:58.809Z,1.41
2017-02-11T03:29:30.057Z,1.42
2017-02-11T03:29:51.757Z,1.43
2017-02-11T03:30:27.792Z,1.45
2017-02-11T03:30:50.058Z,1.45
2017-02-11T03:31:11.767Z,1.44
2017-02-11T03:31:38.249Z,1.45
2017-02-11T03:31:59.950Z,1.45
2017-02-11T03:32:21.657Z,1.45
2017-02-11T03:32:57.691Z,1.44
2017-02-11T03:33:24.748Z,1.44
2017-02-11T03:33:46.468Z,1.44
2017-02-11T03:34:12.954Z,1.40
2017-02-11T03:34:34.672Z,1.39
2017-02-11T03:35:01.163Z,1.38
2017-02-11T03:35:22.873Z,1.37
2017-02-11T03:35:49.363Z,1.35
2017-02-11T03:36:11.050Z,1.35
2017-02-11T03:36:37.526Z,1.35
2017-02-11T03:36:59.230Z,1.36
2017-02-11T03:37:25.728Z,1.39
2017-02-11T03:38:37.775Z,1.41
2017-02-11T03:38:59.489Z,1.44
2017-02-11T03:39:21.214Z,1.44
2017-02-11T03:39:52.470Z,1.46
2017-02-11T03:40:14.188Z,1.45
2017-02-11T03:40:35.905Z,1.45
2017-02-11T03:41:07.161Z,1.40
2017-02-11T03:41:28.904Z,1.41
2017-02-11T03:41:55.375Z,1.44
2017-02-11T03:42:17.066Z,1.44
2017-02-11T03:42:38.845Z,1.44
2017-02-11T03:43:05.326Z,1.48
2017-02-11T03:43:27.103Z,1.46
2017-02-11T03:43:48.821Z,1.45
2017-02-11T03:44:20.104Z,1.41
2017-02-11T03:44:41.911Z,1.39
2017-02-11T03:45:03.671Z,1.37
2017-02-11T03:46:10.955Z,1.36
2017-02-11T03:46:32.663Z,1.38
2017-02-11T03:47:03.926Z,1.37
2017-02-11T03:47:25.630Z,1.37
2017-02-11T03:47:47.350Z,1.35
2017-02-11T03:48:13.870Z,1.38
2017-02-11T03:48:35.569Z,1.40
2017-02-11T03:48:57.293Z,1.44
2017-02-11T03:49:23.775Z,1.43
2017-02-11T03:49:45.589Z,1.43
2017-02-11T03:50:12.107Z,1.45
2017-02-11T03:50:33.926Z,1.45
2017-02-11T03:50:55.633Z,1.44
2017-02-11T03:51:17.335Z,1.47
2017-02-11T03:51:39.042Z,1.47
2017-02-11T03:52:41.635Z,1.38
2017-02-11T03:53:08.120Z,1.41
2017-02-11T03:53:29.813Z,1.45
2017-02-11T03:53:56.291Z,1.45
2017-02-11T03:54:17.997Z,1.44
2017-02-11T03:54:39.802Z,1.41
2017-02-11T03:55:01.514Z,1.39
2017-02-11T03:55:23.248Z,1.37
2017-02-11T03:55:44.965Z,1.38
2017-02-11T03:56:11.439Z,1.37
2017-02-11T03:56:33.220Z,1.38
2017-02-11T03:56:55.031Z,1.39
2017-02-11T03:57:16.728Z,1.41
2017-02-11T03:57:38.434Z,1.42
2017-02-11T03:58:04.913Z,1.41
2017-02-11T03:58:26.636Z,1.41
2017-02-11T03:58:53.199Z,1.40
2017-02-11T03:59:14.892Z,1.40
2017-02-11T03:59:36.601Z,1.41
2017-02-11T03:59:58.322Z,1.41
2017-02-11T04:00:20.113Z,1.41
2017-02-11T04:00:46.790Z,1.41
2017-02-11T04:01:13.259Z,1.40
2017-02-11T04:01:34.976Z,1.41
2017-02-11T04:02:01.441Z,1.40
2017-02-11T04:02:23.240Z,1.37
2017-02-11T04:02:49.721Z,1.35
2017-02-11T04:03:11.434Z,1.36
2017-02-11T04:03:33.127Z,1.35
2017-02-11T04:03:59.694Z,1.36
2017-02-11T04:04:21.378Z,1.39
2017-02-11T04:04:43.081Z,1.39
2017-02-11T04:05:04.792Z,1.40
2017-02-11T04:05:26.535Z,1.41
2017-02-11T04:05:48.243Z,1.39
2017-02-11T04:06:14.719Z,1.43
2017-02-11T04:06:36.422Z,1.44
2017-02-11T04:06:58.219Z,1.42
2017-02-11T04:07:19.927Z,1.43
2017-02-11T04:07:41.733Z,1.43
2017-02-11T04:08:12.978Z,1.41
2017-02-11T04:08:34.675Z,1.39
2017-02-11T04:09:01.144Z,1.39
2017-02-11T04:09:22.843Z,1.39
2017-02-11T04:09:44.562Z,1.39
2017-02-11T04:10:15.816Z,1.40
2017-02-11T04:10:37.534Z,1.39
2017-02-11T04:11:04.009Z,1.39
2017-02-11T04:11:25.702Z,1.40
2017-02-11T04:11:47.411Z,1.39
2017-02-11T04:12:09.111Z,1.40
2017-02-11T04:12:30.891Z,1.39
2017-02-11T04:13:06.928Z,1.37
2017-02-11T04:13:29.202Z,1.37
2017-02-11T04:13:50.936Z,1.37
2017-02-11T04:14:12.641Z,1.37
2017-02-11T04:14:39.123Z,1.35
2017-02-11T04:15:00.838Z,1.35
2017-02-11T04:15:22.623Z,1.34
2017-02-11T04:15:49.106Z,1.36
2017-02-11T04:16:10.814Z,1.35
2017-02-11T04:16:37.389Z,1.37
2017-02-11T04:16:59.176Z,1.36
2017-02-11T04:17:20.884Z,1.35
2017-02-11T04:17:42.587Z,1.36
2017-02-11T04:18:04.299Z,1.36
2017-02-11T04:18:35.548Z,1.36
2017-02-11T04:18:57.251Z,1.39
2017-02-11T04:19:28.500Z,1.39
2017-02-11T04:19:50.197Z,1.40
2017-02-11T04:20:11.904Z,1.39
2017-02-11T04:20:33.608Z,1.39
2017-02-11T04:20:55.304Z,1.40
2017-02-11T04:21:21.780Z,1.39
2017-02-11T04:21:43.511Z,1.39
2017-02-11T04:22:09.983Z,1.38
2017-02-11T04:22:31.692Z,1.38
2017-02-11T04:22:58.158Z,1.37
2017-02-11T04:23:19.860Z,1.38
2017-02-11T04:23:46.360Z,1.36
2017-02-11T04:24:12.820Z,1.36
2017-02-11T04:24:34.519Z,1.36
2017-02-11T04:24:56.224Z,1.35
2017-02-11T04:25:17.929Z,1.36
2017-02-11T04:25:39.634Z,1.36
2017-02-11T04:26:06.103Z,1.35
2017-02-11T04:26:27.803Z,1.34
2017-02-11T04:26:54.290Z,1.35
2017-02-11T04:27:16.005Z,1.36
2017-02-11T04:27:37.724Z,1.36
2017-02-11T04:28:08.969Z,1.34
2017-02-11T04:28:30.697Z,1.33
2017-02-11T04:28:57.174Z,1.33
2017-02-11T04:29:18.881Z,1.35
2017-02-11T04:29:43.327Z,1.35
2017-02-11T04:30:05.025Z,1.34
2017-02-11T04:30:26.734Z,1.35
2017-02-11T04:30:53.222Z,1.36
2017-02-11T04:31:14.930Z,1.39
2017-02-11T04:31:36.626Z,1.37
2017-02-11T04:32:03.118Z,1.36
2017-02-11T04:32:24.851Z,1.37
2017-02-11T04:32:56.104Z,1.39
2017-02-11T04:33:17.809Z,1.41
2017-02-11T04:33:44.302Z,1.42
2017-02-11T04:34:05.995Z,1.41
2017-02-11T04:34:32.467Z,1.41
2017-02-11T04:34:54.167Z,1.40
2017-02-11T04:35:20.647Z,1.40
2017-02-11T04:35:42.348Z,1.39
2017-02-11T04:36:04.053Z,1.39
2017-02-11T04:36:25.762Z,1.38
2017-02-11T04:36:47.461Z,1.39
2017-02-11T04:37:18.712Z,1.34
2017-02-11T04:37:40.445Z,1.37
2017-02-11T04:38:06.916Z,1.38
2017-02-11T04:38:28.617Z,1.41
2017-02-11T04:38:50.317Z,1.43
2017-02-11T04:39:21.576Z,1.45
2017-02-11T04:39:43.278Z,1.44
2017-02-11T04:40:14.531Z,1.43
2017-02-11T04:40:36.227Z,1.44
2017-02-11T04:41:02.708Z,1.40
2017-02-11T04:41:24.434Z,1.40
2017-02-11T04:41:55.689Z,1.43
2017-02-11T04:42:17.387Z,1.41
2017-02-11T04:42:48.638Z,1.44
2017-02-11T04:43:10.331Z,1.44
2017-02-11T04:43:41.593Z,1.45
2017-02-11T04:44:03.285Z,1.45
2017-02-11T04:44:34.536Z,1.44
2017-02-11T04:44:56.241Z,1.44
2017-02-11T04:45:17.946Z,1.44
2017-02-11T04:45:39.649Z,1.46
2017-02-11T04:46:01.377Z,1.46
2017-02-11T04:46:23.073Z,1.46
2017-02-11T04:46:49.555Z,1.44
2017-02-11T04:47:11.257Z,1.44
2017-02-11T04:47:32.953Z,1.43
2017-02-11T04:47:59.416Z,1.42
2017-02-11T04:48:21.120Z,1.40
2017-02-11T04:48:42.830Z,1.40
2017-02-11T04:49:04.540Z,1.41
2017-02-11T04:49:26.243Z,1.41
2017-02-11T04:49:47.944Z,1.44
2017-02-11T04:50:14.417Z,1.44
2017-02-11T04:50:36.115Z,1.44
2017-02-11T04:50:57.808Z,1.44
2017-02-11T04:51:24.281Z,1.42
2017-02-11T04:51:45.995Z,1.41
2017-02-11T04:52:12.477Z,1.44
2017-02-11T04:52:34.180Z,1.43
2017-02-11T04:52:55.907Z,1.43
2017-02-11T04:53:22.377Z,1.43
2017-02-11T04:53:44.076Z,1.42
2017-02-11T04:54:05.785Z,1.43
2017-02-11T04:54:27.491Z,1.45
2017-02-11T04:54:49.195Z,1.46
2017-02-11T04:55:10.899Z,1.45
2017-02-11T04:55:32.609Z,1.45
2017-02-11T04:55:54.328Z,1.46
2017-02-11T04:56:20.806Z,1.46
2017-02-11T04:56:42.501Z,1.46
2017-02-11T04:57:04.210Z,1.48
2017-02-11T04:57:30.686Z,1.49
2017-02-11T04:57:52.409Z,1.49
2017-02-11T04:58:23.658Z,1.51
2017-02-11T04:58:45.359Z,1.53
2017-02-11T04:59:52.644Z,1.51
2017-02-11T05:00:14.444Z,1.51
2017-02-11T05:00:36.237Z,1.51
2017-02-11T05:01:07.493Z,1.50
2017-02-11T05:01:29.192Z,1.51
2017-02-11T05:01:55.669Z,1.50
2017-02-11T05:02:17.376Z,1.51
2017-02-11T05:03:24.668Z,1.49
2017-02-11T05:03:46.370Z,1.47
2017-02-11T05:04:08.080Z,1.48
2017-02-11T05:04:34.564Z,1.52
2017-02-11T05:04:56.292Z,1.53
2017-02-11T05:05:17.998Z,1.53
2017-02-11T05:05:39.939Z,1.53
2017-02-11T05:06:01.649Z,1.53
2017-02-11T05:06:23.353Z,1.53
2017-02-11T05:06:49.919Z,1.52
2017-02-11T05:07:11.699Z,1.52
2017-02-11T05:07:38.323Z,1.51
2017-02-11T05:07:59.991Z,1.52
2017-02-11T05:08:21.839Z,1.52
2017-02-11T05:08:53.085Z,1.49
2017-02-11T05:09:14.788Z,1.52
2017-02-11T05:09:41.351Z,1.52
2017-02-11T05:10:03.052Z,1.51
2017-02-11T05:10:24.764Z,1.51
2017-02-11T05:10:46.496Z,1.51
2017-02-11T05:11:08.195Z,1.50
2017-02-11T05:11:39.449Z,1.49
2017-02-11T05:12:01.147Z,1.49
2017-02-11T05:12:27.718Z,1.49
2017-02-11T05:12:49.413Z,1.49
2017-02-11T05:13:11.107Z,1.47
2017-02-11T05:13:37.669Z,1.48
2017-02-11T05:13:59.462Z,1.50
2017-02-11T05:15:02.056Z,1.50
2017-02-11T05:15:23.752Z,1.50
2017-02-11T05:15:55.013Z,1.49
2017-02-11T05:16:16.787Z,1.50
2017-02-11T05:16:43.266Z,1.49
2017-02-11T05:17:04.954Z,1.47
2017-02-11T05:17:31.525Z,1.49
2017-02-11T05:17:53.227Z,1.50
2017-02-11T05:18:55.843Z,1.49
2017-02-11T05:19:22.309Z,1.50
2017-02-11T05:19:44.004Z,1.50
2017-02-11T05:20:10.579Z,1.50
2017-02-11T05:20:32.320Z,1.50
2017-02-11T05:20:54.048Z,1.51
2017-02-11T05:21:15.777Z,1.49
2017-02-11T05:21:37.578Z,1.47
2017-02-11T05:21:59.303Z,1.48
2017-02-11T05:22:21.012Z,1.49
2017-02-11T05:22:42.704Z,1.49
2017-02-11T05:23:04.508Z,1.48
2017-02-11T05:23:31.021Z,1.49
2017-02-11T05:23:52.709Z,1.49
2017-02-11T05:24:14.420Z,1.50
2017-02-11T05:24:36.214Z,1.48
2017-02-11T05:24:57.941Z,1.50
2017-02-11T05:25:19.645Z,1.49
2017-02-11T05:25:41.368Z,1.48
2017-02-11T05:26:03.126Z,1.49
2017-02-11T05:26:24.830Z,1.49
2017-02-11T05:26:51.334Z,1.49
2017-02-11T05:27:13.041Z,1.49
2017-02-11T05:27:34.837Z,1.48
2017-02-11T05:28:01.315Z,1.48
2017-02-11T05:28:23.017Z,1.49
2017-02-11T05:28:49.573Z,1.50
2017-02-11T05:29:11.270Z,1.50
2017-02-11T05:29:32.973Z,1.49
2017-02-11T05:29:54.675Z,1.48
2017-02-11T05:30:16.469Z,1.51
2017-02-11T05:30:38.171Z,1.52
2017-02-11T05:30:59.882Z,1.51
2017-02-11T05:31:21.614Z,1.48
2017-02-11T05:31:43.402Z,1.48
2017-02-11T05:32:05.105Z,1.51
2017-02-11T05:32:26.803Z,1.50
2017-02-11T05:32:53.364Z,1.51
2017-02-11T05:33:15.078Z,1.52
2017-02-11T05:33:36.860Z,1.52
2017-02-11T05:33:58.663Z,1.53